createdAt,value
2018-03-20T00:01:52.978Z,55.90
2018-03-20T00:04:20.369Z,54.84
2018-03-20T00:06:47.762Z,54.90
2018-03-20T00:09:15.534Z,55.20
2018-03-20T00:11:42.931Z,54.46
2018-03-20T00:14:10.330Z,53.96
2018-03-20T00:16:37.729Z,53.91
2018-03-20T00:19:05.127Z,53.11
2018-03-20T00:21:32.538Z,53.17
2018-03-20T00:23:59.939Z,53.17
2018-03-20T00:26:27.347Z,53.46
2018-03-20T00:28:54.742Z,53.78
2018-03-20T00:31:22.139Z,52.84
2018-03-20T00:33:49.543Z,52.37
2018-03-20T00:36:16.940Z,53.23
2018-03-20T00:38:44.335Z,53.45
2018-03-20T00:41:11.746Z,52.21
2018-03-20T00:43:39.146Z,52.69
2018-03-20T00:46:06.562Z,53.04
2018-03-20T00:48:33.954Z,53.01
2018-03-20T00:51:01.353Z,54.00
2018-03-20T00:53:28.750Z,52.87
2018-03-20T00:55:56.146Z,53.28
2018-03-20T00:58:23.553Z,53.08
2018-03-20T01:00:50.955Z,53.52
2018-03-20T01:03:18.342Z,53.83
2018-03-20T01:05:45.743Z,55.13
2018-03-20T01:08:13.141Z,54.64
2018-03-20T01:10:40.547Z,55.01
2018-03-20T01:13:07.945Z,55.49
2018-03-20T01:15:35.337Z,56.34
2018-03-20T01:18:02.733Z,58.23
2018-03-20T01:20:30.134Z,57.69
2018-03-20T01:22:57.546Z,57.24
2018-03-20T01:25:24.937Z,57.56
2018-03-20T01:27:52.337Z,57.55
2018-03-20T01:44:47.854Z,61.70
2018-03-20T01:47:15.262Z,62.76
2018-03-20T01:49:42.658Z,61.89
2018-03-20T01:52:10.622Z,62.41
2018-03-20T01:54:38.017Z,61.99
2018-03-20T01:57:05.421Z,61.96
2018-03-20T01:59:32.835Z,63.62
2018-03-20T02:02:00.243Z,62.44
2018-03-20T02:04:27.630Z,62.46
2018-03-20T02:06:55.029Z,62.60
2018-03-20T02:09:22.451Z,62.19
2018-03-20T02:11:49.855Z,63.68
2018-03-20T02:14:17.302Z,63.54
2018-03-20T02:16:44.670Z,63.39
2018-03-20T02:19:12.078Z,64.35
2018-03-20T02:21:39.477Z,65.10
2018-03-20T02:24:06.889Z,66.80
2018-03-20T02:26:34.273Z,66.27
2018-03-20T02:29:01.677Z,64.77
2018-03-20T02:31:29.074Z,64.29
2018-03-20T02:33:56.481Z,64.15
2018-03-20T02:36:23.869Z,63.71
2018-03-20T02:38:51.274Z,64.41
2018-03-20T02:41:18.671Z,64.42
2018-03-20T02:43:46.070Z,65.18
2018-03-20T02:46:14.050Z,64.26
2018-03-20T02:48:41.455Z,64.61
2018-03-20T02:51:08.874Z,64.22
2018-03-20T02:53:36.277Z,64.26
2018-03-20T02:56:03.662Z,64.21
2018-03-20T02:58:31.118Z,63.98
2018-03-20T03:00:58.549Z,65.84
2018-03-20T03:03:25.939Z,65.49
2018-03-20T03:05:53.422Z,64.26
2018-03-20T03:08:20.824Z,63.33
2018-03-20T03:10:48.213Z,63.02
2018-03-20T03:13:15.613Z,62.08
2018-03-20T03:15:43.020Z,61.13
2018-03-20T03:18:10.411Z,63.11
2018-03-20T03:20:37.808Z,63.13
2018-03-20T03:23:05.204Z,62.55
2018-03-20T03:25:32.601Z,61.48
2018-03-20T03:28:00.181Z,61.65
2018-03-20T03:30:27.599Z,62.19
2018-03-20T03:32:54.988Z,61.02
2018-03-20T03:35:22.389Z,61.19
2018-03-20T03:37:49.785Z,62.81
2018-03-20T03:40:17.181Z,64.60
2018-03-20T03:42:44.583Z,63.98
2018-03-20T03:45:11.979Z,64.22
2018-03-20T03:47:39.374Z,64.30
2018-03-20T03:50:06.766Z,63.71
2018-03-20T03:52:34.165Z,64.35
2018-03-20T03:55:01.579Z,64.55
2018-03-20T03:57:28.978Z,63.53
2018-03-20T03:59:56.379Z,61.60
2018-03-20T04:02:23.782Z,61.91
2018-03-20T04:04:51.185Z,60.54
2018-03-20T04:07:18.587Z,60.28
2018-03-20T04:09:45.982Z,59.70
2018-03-20T04:12:13.386Z,60.16
2018-03-20T04:14:40.780Z,60.13
2018-03-20T04:17:08.186Z,59.66
2018-03-20T04:19:35.586Z,60.35
2018-03-20T04:22:02.979Z,60.16
2018-03-20T04:24:30.390Z,59.29
2018-03-20T04:26:57.781Z,59.54
2018-03-20T04:29:25.181Z,59.31
2018-03-20T04:31:52.594Z,58.40
2018-03-20T04:34:20.001Z,59.35
2018-03-20T04:36:47.394Z,58.78
2018-03-20T04:39:14.798Z,59.05
2018-03-20T04:41:42.194Z,59.41
2018-03-20T04:44:09.607Z,60.40
2018-03-20T04:46:36.998Z,61.11
2018-03-20T04:49:04.393Z,60.87
2018-03-20T04:51:31.801Z,59.31
2018-03-20T04:53:59.201Z,59.39
2018-03-20T04:56:26.594Z,60.10
2018-03-20T04:58:54.034Z,59.97
2018-03-20T05:01:21.441Z,59.65
2018-03-20T05:03:48.818Z,59.05
2018-03-20T05:06:16.222Z,61.50
2018-03-20T05:08:43.613Z,62.20
2018-03-20T05:11:11.009Z,61.97
2018-03-20T05:13:38.407Z,61.49
2018-03-20T05:16:05.831Z,61.86
2018-03-20T05:18:33.208Z,63.64
2018-03-20T05:21:06.217Z,63.27
2018-03-20T05:23:39.295Z,64.96
2018-03-20T05:26:06.704Z,65.18
2018-03-20T05:28:34.099Z,68.61
2018-03-20T05:31:01.517Z,70.43
2018-03-20T05:33:28.906Z,70.75
2018-03-20T05:35:56.299Z,72.18
2018-03-20T05:38:23.741Z,72.65
2018-03-20T05:40:51.104Z,73.07
2018-03-20T05:43:18.505Z,74.71
2018-03-20T05:45:45.897Z,75.69
2018-03-20T05:51:38.863Z,78.26
2018-03-20T05:54:06.284Z,78.27
2018-03-20T05:56:33.682Z,79.67
2018-03-20T05:59:01.081Z,79.66
2018-03-20T06:01:28.522Z,80.04
2018-03-20T06:03:55.913Z,80.09
2018-03-20T06:06:23.313Z,79.97
2018-03-20T06:08:50.713Z,80.98
2018-03-20T06:11:18.109Z,81.90
2018-03-20T06:13:45.518Z,81.53
2018-03-20T06:16:12.914Z,82.22
2018-03-20T06:18:40.367Z,84.01
2018-03-20T06:21:07.752Z,83.75
2018-03-20T06:23:35.149Z,83.73
2018-03-20T06:26:02.559Z,83.89
2018-03-20T06:28:29.961Z,83.84
2018-03-20T06:30:57.358Z,82.86
2018-03-20T06:33:24.749Z,82.90
2018-03-20T06:35:52.171Z,83.06
2018-03-20T06:38:19.565Z,83.70
2018-03-20T06:40:46.970Z,84.00
2018-03-20T06:43:15.092Z,85.54
2018-03-20T06:45:42.486Z,84.85
2018-03-20T06:48:09.875Z,84.72
2018-03-20T06:50:37.269Z,84.97
2018-03-20T06:53:04.969Z,84.94
2018-03-20T06:55:32.717Z,84.13
2018-03-20T06:58:00.114Z,84.09
2018-03-20T07:00:27.509Z,84.17
2018-03-20T07:02:54.906Z,85.07
2018-03-20T07:05:22.308Z,84.95
2018-03-20T07:07:49.694Z,84.33
2018-03-20T07:10:17.094Z,84.91
2018-03-20T07:12:44.486Z,84.32
2018-03-20T07:15:11.869Z,84.33
2018-03-20T07:17:39.270Z,85.73
2018-03-20T07:20:06.655Z,86.24
2018-03-20T07:22:34.059Z,85.92
2018-03-20T07:25:01.468Z,86.03
2018-03-20T07:27:28.846Z,85.47
2018-03-20T07:29:56.242Z,85.69
2018-03-20T07:32:23.646Z,86.39
2018-03-20T07:34:51.186Z,85.17
2018-03-20T07:37:18.575Z,85.33
2018-03-20T07:39:45.978Z,85.87
2018-03-20T07:42:13.366Z,85.62
2018-03-20T07:44:40.790Z,85.67
2018-03-20T07:47:08.186Z,85.24
2018-03-20T07:49:35.579Z,85.29
2018-03-20T07:52:02.982Z,85.51
2018-03-20T07:54:30.378Z,85.41
2018-03-20T07:56:57.786Z,85.08
2018-03-20T07:59:25.183Z,84.03
2018-03-20T08:01:52.588Z,84.25
2018-03-20T08:04:19.977Z,83.35
2018-03-20T08:06:47.378Z,85.05
2018-03-20T08:09:14.769Z,85.59
2018-03-20T08:11:42.161Z,86.76
2018-03-20T08:14:09.562Z,86.61
2018-03-20T08:16:36.950Z,86.19
2018-03-20T08:19:04.374Z,86.96
2018-03-20T08:21:31.756Z,87.17
2018-03-20T08:23:59.146Z,86.96
2018-03-20T08:26:26.553Z,88.00
2018-03-20T08:28:54.362Z,88.00
2018-03-20T08:31:21.754Z,87.26
2018-03-20T08:33:49.149Z,87.90
2018-03-20T08:36:16.550Z,88.07
2018-03-20T08:38:43.945Z,89.11
2018-03-20T08:41:11.346Z,89.11
2018-03-20T08:43:38.747Z,87.86
2018-03-20T08:46:06.146Z,87.46
2018-03-20T08:48:33.541Z,87.98
2018-03-20T08:51:00.945Z,88.43
2018-03-20T08:53:28.335Z,88.42
2018-03-20T08:55:55.730Z,86.97
2018-03-20T08:58:23.123Z,86.40
2018-03-20T09:00:50.522Z,86.37
2018-03-20T09:03:17.934Z,85.85
2018-03-20T09:05:45.348Z,84.45
2018-03-20T09:08:12.734Z,85.01
2018-03-20T09:10:40.133Z,85.12
2018-03-20T09:13:07.530Z,84.95
2018-03-20T09:15:34.936Z,85.77
2018-03-20T09:18:02.334Z,84.57
2018-03-20T09:20:29.734Z,84.67
2018-03-20T09:22:57.139Z,84.22
2018-03-20T09:25:24.554Z,83.71
2018-03-20T09:27:51.958Z,84.01
2018-03-20T09:30:19.353Z,82.80
2018-03-20T09:32:46.766Z,83.92
2018-03-20T09:35:14.166Z,84.69
2018-03-20T09:37:41.569Z,83.10
2018-03-20T09:40:08.970Z,83.54
2018-03-20T09:42:36.431Z,81.55
2018-03-20T09:45:03.778Z,82.16
2018-03-20T09:47:31.602Z,81.45
2018-03-20T09:49:58.995Z,78.98
2018-03-20T09:52:26.393Z,79.84
2018-03-20T09:54:53.789Z,78.09
2018-03-20T09:57:21.173Z,74.05
2018-03-20T09:59:48.570Z,74.86
2018-03-20T10:02:15.967Z,77.00
2018-03-20T10:04:43.358Z,75.01
2018-03-20T10:07:10.755Z,76.58
2018-03-20T10:09:38.162Z,76.25
2018-03-20T10:12:05.546Z,74.57
2018-03-20T10:14:32.938Z,73.68
2018-03-20T10:17:00.337Z,74.76
2018-03-20T10:19:27.733Z,74.26
2018-03-20T10:21:55.117Z,73.00
2018-03-20T10:24:22.791Z,72.67
2018-03-20T10:26:50.174Z,70.10
2018-03-20T10:29:17.561Z,70.17
2018-03-20T10:31:44.953Z,66.06
2018-03-20T10:34:12.349Z,67.25
2018-03-20T10:36:39.758Z,64.62
2018-03-20T10:39:07.147Z,62.14
2018-03-20T10:41:34.565Z,62.85
2018-03-20T10:44:01.970Z,64.04
2018-03-20T10:46:29.361Z,63.19
2018-03-20T10:48:56.751Z,64.08
2018-03-20T10:51:24.146Z,62.45
2018-03-20T10:53:51.534Z,58.93
2018-03-20T10:56:18.929Z,57.42
2018-03-20T10:58:46.313Z,56.83
2018-03-20T11:01:19.402Z,55.84
2018-03-20T11:03:46.798Z,52.84
2018-03-20T11:06:14.190Z,53.82
2018-03-20T11:08:41.608Z,53.46
2018-03-20T11:11:08.991Z,50.63
2018-03-20T11:13:36.389Z,49.46
2018-03-20T11:16:03.770Z,50.55
2018-03-20T11:18:31.157Z,49.84
2018-03-20T11:20:58.542Z,48.67
2018-03-20T11:23:25.937Z,47.76
2018-03-20T11:25:53.320Z,47.04
2018-03-20T11:28:20.703Z,47.57
2018-03-20T11:30:48.099Z,46.46
2018-03-20T11:33:15.474Z,46.89
2018-03-20T11:35:42.861Z,44.98
2018-03-20T11:38:10.250Z,45.35
2018-03-20T11:40:37.640Z,44.63
2018-03-20T11:43:05.019Z,44.45
2018-03-20T11:45:32.405Z,45.23
2018-03-20T11:47:59.786Z,44.93
2018-03-20T11:50:27.176Z,43.36
2018-03-20T11:52:54.558Z,44.17
2018-03-20T11:55:21.942Z,44.25
2018-03-20T11:57:49.334Z,45.73
2018-03-20T12:00:16.717Z,43.77
2018-03-20T12:02:44.102Z,44.45
2018-03-20T12:05:11.486Z,43.64
2018-03-20T12:07:50.774Z,42.80
2018-03-20T12:10:18.154Z,41.33
2018-03-20T12:12:45.545Z,42.33
2018-03-20T12:15:12.929Z,41.39
2018-03-20T12:17:40.368Z,41.76
2018-03-20T12:20:07.755Z,42.20
2018-03-20T12:22:35.137Z,43.09
2018-03-20T12:25:02.530Z,40.52
2018-03-20T12:27:29.942Z,41.08
2018-03-20T12:29:57.339Z,41.55
2018-03-20T12:32:24.714Z,41.05
2018-03-20T12:34:52.111Z,40.75
2018-03-20T12:37:19.490Z,39.26
2018-03-20T12:39:46.877Z,40.56
2018-03-20T12:42:14.271Z,40.86
2018-03-20T12:44:41.654Z,38.62
2018-03-20T12:47:09.046Z,38.91
2018-03-20T12:49:36.426Z,38.17
2018-03-20T12:52:03.807Z,37.24
2018-03-20T12:54:31.251Z,38.32
2018-03-20T12:56:58.605Z,37.55
2018-03-20T12:59:25.978Z,37.64
2018-03-20T13:01:53.366Z,39.20
2018-03-20T13:04:20.760Z,38.06
2018-03-20T13:06:48.138Z,37.29
2018-03-20T13:09:15.526Z,38.00
2018-03-20T13:11:42.910Z,37.26
2018-03-20T13:14:11.049Z,36.62
2018-03-20T13:16:38.433Z,36.26
2018-03-20T13:19:05.818Z,36.44
2018-03-20T13:21:33.190Z,36.61
2018-03-20T13:24:00.590Z,36.38
2018-03-20T13:26:27.966Z,35.85
2018-03-20T13:28:55.346Z,36.37
2018-03-20T13:31:22.762Z,37.01
2018-03-20T13:33:50.150Z,37.56
2018-03-20T13:36:17.534Z,36.70
2018-03-20T13:38:44.918Z,36.40
2018-03-20T13:41:12.315Z,35.07
2018-03-20T13:43:39.693Z,33.83
2018-03-20T13:46:07.081Z,34.11
2018-03-20T13:48:34.479Z,33.76
2018-03-20T13:51:01.866Z,34.77
2018-03-20T13:53:29.245Z,34.04
2018-03-20T13:55:56.625Z,33.75
2018-03-20T13:58:24.009Z,32.77
2018-03-20T14:00:51.389Z,33.65
2018-03-20T14:03:18.783Z,34.40
2018-03-20T14:05:46.153Z,33.44
2018-03-20T14:08:13.547Z,32.90
2018-03-20T14:10:40.928Z,33.51
2018-03-20T14:13:08.322Z,32.95
2018-03-20T14:15:35.697Z,32.78
2018-03-20T14:18:03.086Z,33.79
2018-03-20T14:20:30.531Z,33.81
2018-03-20T14:22:57.919Z,34.21
2018-03-20T14:25:25.333Z,34.12
2018-03-20T14:27:52.710Z,33.35
2018-03-20T14:30:20.137Z,33.00
2018-03-20T14:32:47.538Z,33.01
2018-03-20T14:35:14.942Z,32.78
2018-03-20T14:37:42.330Z,32.44
2018-03-20T14:40:09.718Z,32.55
2018-03-20T14:42:37.103Z,33.30
2018-03-20T14:45:04.488Z,33.07
2018-03-20T14:47:31.870Z,33.55
2018-03-20T14:49:59.250Z,33.46
2018-03-20T14:52:26.645Z,32.85
2018-03-20T14:54:54.032Z,33.09
2018-03-20T14:57:21.426Z,32.41
2018-03-20T14:59:48.837Z,32.61
2018-03-20T15:02:16.226Z,32.87
2018-03-20T15:04:43.605Z,34.51
2018-03-20T15:07:10.990Z,32.63
2018-03-20T15:09:38.379Z,33.20
2018-03-20T15:12:05.767Z,33.51
2018-03-20T15:14:33.203Z,32.49
2018-03-20T15:17:00.582Z,32.22
2018-03-20T15:19:27.970Z,32.62
2018-03-20T15:21:55.350Z,33.50
2018-03-20T15:24:22.740Z,33.06
2018-03-20T15:26:50.158Z,33.31
2018-03-20T15:29:17.573Z,33.30
2018-03-20T15:31:44.937Z,32.66
2018-03-20T15:34:12.325Z,33.06
2018-03-20T15:36:39.742Z,33.66
2018-03-20T15:39:07.140Z,33.59
2018-03-20T15:41:34.522Z,32.16
2018-03-20T15:44:01.906Z,32.22
2018-03-20T15:46:29.311Z,32.61
2018-03-20T15:48:56.732Z,30.85
2018-03-20T15:51:24.157Z,31.57
2018-03-20T15:53:51.578Z,30.98
2018-03-20T15:56:18.981Z,31.88
2018-03-20T15:58:46.358Z,30.49
2018-03-20T16:01:13.795Z,30.96
2018-03-20T16:03:41.222Z,31.92
2018-03-20T16:06:08.689Z,31.67
2018-03-20T16:08:36.078Z,32.25
2018-03-20T16:11:03.470Z,31.76
2018-03-20T16:13:30.848Z,32.63
2018-03-20T16:15:58.301Z,32.42
2018-03-20T16:18:25.713Z,33.57
2018-03-20T16:20:53.146Z,32.79
2018-03-20T16:23:20.583Z,32.79
2018-03-20T16:25:48.020Z,33.58
2018-03-20T16:28:15.390Z,34.22
2018-03-20T16:30:42.799Z,34.66
2018-03-20T16:33:10.209Z,33.18
2018-03-20T16:35:37.611Z,32.17
2018-03-20T16:38:05.038Z,32.38
2018-03-20T16:40:32.477Z,32.78
2018-03-20T16:42:59.861Z,33.02
2018-03-20T16:45:27.277Z,33.27
2018-03-20T16:47:54.726Z,33.77
2018-03-20T16:50:22.133Z,34.09
2018-03-20T16:52:49.517Z,34.38
2018-03-20T16:55:16.905Z,34.35
2018-03-20T16:57:44.300Z,34.87
2018-03-20T17:00:11.686Z,34.24
2018-03-20T17:02:39.471Z,34.29
2018-03-20T17:05:06.856Z,34.90
2018-03-20T17:07:34.229Z,35.12
2018-03-20T17:10:01.617Z,35.33
2018-03-20T17:12:28.994Z,34.89
2018-03-20T17:14:56.406Z,35.46
2018-03-20T17:17:23.791Z,36.04
2018-03-20T17:19:51.177Z,36.11
2018-03-20T17:22:18.589Z,36.88
2018-03-20T17:24:45.978Z,36.42
2018-03-20T17:27:13.362Z,36.47
2018-03-20T17:29:40.752Z,36.56
2018-03-20T17:32:08.140Z,36.78
2018-03-20T17:34:35.545Z,36.75
2018-03-20T17:37:02.926Z,36.46
2018-03-20T17:39:30.319Z,36.41
2018-03-20T17:41:57.706Z,36.48
2018-03-20T17:44:25.106Z,36.77
2018-03-20T17:46:52.495Z,36.88
2018-03-20T17:49:19.879Z,36.87
2018-03-20T17:51:47.274Z,37.07
2018-03-20T17:54:14.654Z,37.44
2018-03-20T17:56:42.057Z,37.09
2018-03-20T17:59:09.438Z,37.61
2018-03-20T18:01:36.814Z,37.08
2018-03-20T18:04:04.209Z,36.95
2018-03-20T18:06:31.608Z,37.12
2018-03-20T18:08:59.304Z,36.94
2018-03-20T18:11:26.672Z,37.49
2018-03-20T18:13:54.098Z,37.85
2018-03-20T18:16:21.484Z,37.98
2018-03-20T18:18:48.880Z,37.80
2018-03-20T18:21:16.278Z,38.13
2018-03-20T18:23:43.664Z,38.50
2018-03-20T18:26:11.069Z,38.61
2018-03-20T18:28:38.453Z,38.49
2018-03-20T18:31:05.835Z,38.79
2018-03-20T18:33:33.243Z,38.67
2018-03-20T18:36:00.634Z,38.65
2018-03-20T18:38:28.021Z,38.98
2018-03-20T18:40:55.390Z,38.75
2018-03-20T18:43:22.782Z,38.89
2018-03-20T18:45:50.171Z,39.15
2018-03-20T18:48:17.553Z,39.32
2018-03-20T18:50:44.939Z,39.62
2018-03-20T18:53:12.347Z,39.54
2018-03-20T18:55:39.721Z,39.58
2018-03-20T18:58:07.129Z,40.57
2018-03-20T19:00:34.521Z,40.44
2018-03-20T19:03:01.908Z,40.46
2018-03-20T19:05:29.286Z,41.06
2018-03-20T19:07:56.675Z,40.71
2018-03-20T19:10:24.077Z,40.88
2018-03-20T19:12:51.461Z,41.19
2018-03-20T19:15:18.846Z,41.82
2018-03-20T19:17:46.264Z,41.69
2018-03-20T19:20:13.714Z,42.12
2018-03-20T19:22:41.057Z,42.37
2018-03-20T19:25:08.441Z,42.10
2018-03-20T19:27:35.825Z,42.53
2018-03-20T19:30:03.219Z,42.24
2018-03-20T19:32:30.606Z,42.27
2018-03-20T19:34:58.021Z,43.07
2018-03-20T19:37:25.397Z,42.77
2018-03-20T19:39:52.785Z,42.70
2018-03-20T19:42:20.177Z,42.90
2018-03-20T19:44:47.567Z,42.84
2018-03-20T19:47:14.980Z,43.63
2018-03-20T19:49:42.380Z,43.49
2018-03-20T19:52:09.780Z,43.73
2018-03-20T19:54:37.170Z,43.73
2018-03-20T19:57:04.570Z,43.89
2018-03-20T19:59:31.986Z,43.96
2018-03-20T20:01:59.382Z,44.50
2018-03-20T20:04:26.781Z,44.21
2018-03-20T20:06:54.174Z,44.77
2018-03-20T20:09:21.578Z,45.50
2018-03-20T20:11:48.990Z,45.36
2018-03-20T20:14:16.397Z,45.26
2018-03-20T20:16:43.800Z,45.48
2018-03-20T20:19:11.211Z,46.19
2018-03-20T20:21:38.632Z,46.54
2018-03-20T20:24:06.036Z,46.37
2018-03-20T20:26:33.438Z,46.91
2018-03-20T20:29:00.827Z,46.49
2018-03-20T20:31:28.218Z,46.53
2018-03-20T20:33:55.614Z,46.59
2018-03-20T20:36:23.051Z,46.78
2018-03-20T20:38:50.449Z,47.10
2018-03-20T20:41:17.873Z,47.25
2018-03-20T20:43:45.294Z,47.78
2018-03-20T20:46:12.693Z,47.43
2018-03-20T20:48:40.096Z,48.20
2018-03-20T20:51:07.499Z,48.37
2018-03-20T20:53:34.896Z,48.54
2018-03-20T20:56:02.314Z,48.76
2018-03-20T20:58:29.707Z,48.74
2018-03-20T21:00:57.137Z,48.50
2018-03-20T21:03:24.538Z,49.06
2018-03-20T21:05:51.929Z,49.27
2018-03-20T21:08:19.343Z,49.31
2018-03-20T21:10:46.753Z,49.28
2018-03-20T21:13:14.150Z,49.63
2018-03-20T21:15:41.553Z,49.97
2018-03-20T21:18:08.954Z,50.13
2018-03-20T21:20:36.352Z,50.10
2018-03-20T21:23:03.762Z,50.55
2018-03-20T21:25:31.153Z,50.76
2018-03-20T21:27:58.610Z,51.17
2018-03-20T21:30:25.966Z,50.82
2018-03-20T21:32:53.358Z,51.03
2018-03-20T21:35:20.766Z,51.68
2018-03-20T21:37:48.222Z,51.59
2018-03-20T21:40:15.629Z,51.86
2018-03-20T21:42:43.059Z,52.13
2018-03-20T21:45:10.433Z,52.36
2018-03-20T21:47:37.832Z,52.66
2018-03-20T21:50:05.226Z,52.52
2018-03-20T21:52:32.626Z,52.61
2018-03-20T21:55:00.016Z,52.76
2018-03-20T21:57:27.437Z,53.13
2018-03-20T21:59:54.818Z,53.59
2018-03-20T22:02:22.230Z,53.86
2018-03-20T22:04:49.628Z,54.04
2018-03-20T22:07:17.026Z,54.54
2018-03-20T22:09:44.445Z,55.07
2018-03-20T22:12:11.839Z,55.38
2018-03-20T22:14:39.244Z,55.59
2018-03-20T22:17:06.636Z,56.30
2018-03-20T22:19:34.030Z,56.53
2018-03-20T22:22:01.438Z,56.84
2018-03-20T22:24:28.825Z,57.49
2018-03-20T22:26:56.223Z,57.24
2018-03-20T22:29:23.626Z,58.19
2018-03-20T22:31:51.022Z,58.19
2018-03-20T22:34:18.446Z,58.90
2018-03-20T22:36:45.893Z,59.14
2018-03-20T22:39:13.241Z,59.09
2018-03-20T22:41:40.682Z,59.38
2018-03-20T22:44:08.045Z,59.65
2018-03-20T22:46:35.469Z,60.06
2018-03-20T22:49:02.851Z,60.55
2018-03-20T22:51:30.246Z,60.51
2018-03-20T22:53:57.661Z,60.36
2018-03-20T22:56:25.066Z,61.06
2018-03-20T22:58:52.470Z,60.82
2018-03-20T23:01:19.862Z,61.28
2018-03-20T23:03:47.274Z,61.79
2018-03-20T23:06:14.669Z,61.95
2018-03-20T23:08:42.068Z,61.98
2018-03-20T23:11:09.474Z,61.89
2018-03-20T23:13:36.869Z,61.98
2018-03-20T23:16:04.275Z,62.26
2018-03-20T23:18:31.673Z,62.68
2018-03-20T23:20:59.085Z,63.06
2018-03-20T23:23:26.479Z,63.26
2018-03-20T23:25:53.881Z,63.68
2018-03-20T23:28:21.279Z,63.83
2018-03-20T23:30:48.678Z,64.01
2018-03-20T23:33:16.078Z,64.21
2018-03-20T23:35:43.473Z,64.71
2018-03-20T23:38:10.878Z,65.02
2018-03-20T23:40:38.281Z,65.15
2018-03-20T23:43:05.677Z,65.48
2018-03-20T23:45:33.078Z,65.25
2018-03-20T23:48:00.471Z,65.11
2018-03-20T23:50:27.892Z,65.61
2018-03-20T23:52:55.282Z,65.45
2018-03-20T23:55:22.707Z,65.66
2018-03-20T23:57:50.102Z,65.48
